sensor_id;sensor_type;location;lat;lon;timestamp;P1;durP1;ratioP1;P2;durP2;ratioP2
22826;SDS011;11580;52.562;13.418;2023-08-31T00:00:09;3.90;;;3.70;;
22826;SDS011;11580;52.562;13.418;2023-08-31T00:02:38;3.83;;;3.53;;
22826;SDS011;11580;52.562;13.418;2023-08-31T00:05:07;4.00;;;3.70;;
22826;SDS011;11580;52.562;13.418;2023-08-31T00:07:35;3.50;;;3.30;;
22826;SDS011;11580;52.562;13.418;2023-08-31T00:10:03;3.80;;;3.60;;
22826;SDS011;11580;52.562;13.418;2023-08-31T00:12:35;4.13;;;3.83;;
22826;SDS011;11580;52.562;13.418;2023-08-31T00:15:03;4.70;;;4.30;;
22826;SDS011;11580;52.562;13.418;2023-08-31T00:17:34;3.80;;;3.60;;
22826;SDS011;11580;52.562;13.418;2023-08-31T00:20:03;4.10;;;3.90;;
22826;SDS011;11580;52.562;13.418;2023-08-31T00:22:32;3.90;;;3.60;;
22826;SDS011;11580;52.562;13.418;2023-08-31T00:25:00;4.70;;;4.40;;
22826;SDS011;11580;52.562;13.418;2023-08-31T00:27:27;4.60;;;3.27;;
22826;SDS011;11580;52.562;13.418;2023-08-31T00:29:56;3.80;;;3.57;;
22826;SDS011;11580;52.562;13.418;2023-08-31T00:32:23;3.90;;;3.60;;
22826;SDS011;11580;52.562;13.418;2023-08-31T00:34:50;3.90;;;3.70;;
22826;SDS011;11580;52.562;13.418;2023-08-31T00:37:18;4.13;;;3.83;;
22826;SDS011;11580;52.562;13.418;2023-08-31T00:39:46;3.80;;;3.60;;
22826;SDS011;11580;52.562;13.418;2023-08-31T00:42:16;4.10;;;3.80;;
22826;SDS011;11580;52.562;13.418;2023-08-31T00:44:44;3.70;;;3.40;;
22826;SDS011;11580;52.562;13.418;2023-08-31T00:47:13;3.70;;;3.40;;
22826;SDS011;11580;52.562;13.418;2023-08-31T00:49:42;3.30;;;3.10;;
22826;SDS011;11580;52.562;13.418;2023-08-31T00:52:09;3.50;;;3.30;;
22826;SDS011;11580;52.562;13.418;2023-08-31T00:54:37;4.67;;;3.10;;
22826;SDS011;11580;52.562;13.418;2023-08-31T00:57:04;3.47;;;3.27;;
22826;SDS011;11580;52.562;13.418;2023-08-31T00:59:31;3.83;;;3.57;;
22826;SDS011;11580;52.562;13.418;2023-08-31T01:02:01;3.70;;;3.40;;
22826;SDS011;11580;52.562;13.418;2023-08-31T01:04:41;4.20;;;3.80;;
22826;SDS011;11580;52.562;13.418;2023-08-31T01:07:24;4.00;;;3.80;;
22826;SDS011;11580;52.562;13.418;2023-08-31T01:10:04;3.37;;;3.17;;
22826;SDS011;11580;52.562;13.418;2023-08-31T01:12:49;4.07;;;3.77;;
22826;SDS011;11580;52.562;13.418;2023-08-31T01:15:22;4.47;;;4.07;;
22826;SDS011;11580;52.562;13.418;2023-08-31T01:17:55;3.83;;;3.60;;
22826;SDS011;11580;52.562;13.418;2023-08-31T01:20:28;4.00;;;3.77;;
22826;SDS011;11580;52.562;13.418;2023-08-31T01:23:04;4.40;;;4.10;;
22826;SDS011;11580;52.562;13.418;2023-08-31T01:25:38;3.67;;;3.47;;
22826;SDS011;11580;52.562;13.418;2023-08-31T01:28:07;4.27;;;4.03;;
22826;SDS011;11580;52.562;13.418;2023-08-31T01:30:38;4.50;;;4.20;;
22826;SDS011;11580;52.562;13.418;2023-08-31T01:33:05;4.10;;;3.80;;
22826;SDS011;11580;52.562;13.418;2023-08-31T01:35:33;3.97;;;3.73;;
22826;SDS011;11580;52.562;13.418;2023-08-31T01:38:07;3.90;;;3.70;;
22826;SDS011;11580;52.562;13.418;2023-08-31T01:40:40;4.00;;;3.70;;
22826;SDS011;11580;52.562;13.418;2023-08-31T01:43:14;3.90;;;3.70;;
22826;SDS011;11580;52.562;13.418;2023-08-31T01:45:43;4.20;;;3.97;;
22826;SDS011;11580;52.562;13.418;2023-08-31T01:48:13;4.50;;;4.20;;
22826;SDS011;11580;52.562;13.418;2023-08-31T01:50:41;3.30;;;3.10;;
22826;SDS011;11580;52.562;13.418;2023-08-31T01:53:09;3.57;;;3.37;;
22826;SDS011;11580;52.562;13.418;2023-08-31T01:55:36;3.73;;;3.50;;
22826;SDS011;11580;52.562;13.418;2023-08-31T01:58:05;4.00;;;3.70;;
22826;SDS011;11580;52.562;13.418;2023-08-31T02:00:32;4.33;;;4.13;;
22826;SDS011;11580;52.562;13.418;2023-08-31T02:03:00;3.50;;;3.20;;
22826;SDS011;11580;52.562;13.418;2023-08-31T02:05:28;3.40;;;3.20;;
22826;SDS011;11580;52.562;13.418;2023-08-31T02:07:55;3.70;;;3.50;;
22826;SDS011;11580;52.562;13.418;2023-08-31T02:10:22;3.57;;;3.27;;
22826;SDS011;11580;52.562;13.418;2023-08-31T02:12:51;2.60;;;2.43;;
22826;SDS011;11580;52.562;13.418;2023-08-31T02:15:18;2.53;;;2.43;;
22826;SDS011;11580;52.562;13.418;2023-08-31T02:17:45;2.80;;;2.60;;
22826;SDS011;11580;52.562;13.418;2023-08-31T02:20:14;2.40;;;2.20;;
22826;SDS011;11580;52.562;13.418;2023-08-31T02:22:41;2.53;;;2.40;;
22826;SDS011;11580;52.562;13.418;2023-08-31T02:25:08;2.30;;;2.10;;
22826;SDS011;11580;52.562;13.418;2023-08-31T02:27:36;2.37;;;2.27;;
22826;SDS011;11580;52.562;13.418;2023-08-31T02:30:05;2.10;;;2.00;;
22826;SDS011;11580;52.562;13.418;2023-08-31T02:32:34;2.30;;;2.10;;
22826;SDS011;11580;52.562;13.418;2023-08-31T02:35:02;2.10;;;2.00;;
22826;SDS011;11580;52.562;13.418;2023-08-31T02:37:29;2.50;;;2.30;;
22826;SDS011;11580;52.562;13.418;2023-08-31T02:39:56;1.90;;;1.80;;
22826;SDS011;11580;52.562;13.418;2023-08-31T02:42:24;2.30;;;2.10;;
22826;SDS011;11580;52.562;13.418;2023-08-31T02:44:51;2.90;;;2.40;;
22826;SDS011;11580;52.562;13.418;2023-08-31T02:47:21;2.80;;;2.60;;
22826;SDS011;11580;52.562;13.418;2023-08-31T02:49:48;2.70;;;2.50;;
22826;SDS011;11580;52.562;13.418;2023-08-31T02:52:16;2.20;;;2.10;;
22826;SDS011;11580;52.562;13.418;2023-08-31T02:54:43;2.63;;;2.43;;
22826;SDS011;11580;52.562;13.418;2023-08-31T02:57:11;2.27;;;2.07;;
22826;SDS011;11580;52.562;13.418;2023-08-31T02:59:38;2.50;;;2.30;;
22826;SDS011;11580;52.562;13.418;2023-08-31T03:02:07;2.23;;;2.00;;
22826;SDS011;11580;52.562;13.418;2023-08-31T03:04:37;2.60;;;2.40;;
22826;SDS011;11580;52.562;13.418;2023-08-31T03:07:05;2.13;;;2.00;;
22826;SDS011;11580;52.562;13.418;2023-08-31T03:09:32;2.23;;;2.13;;
22826;SDS011;11580;52.562;13.418;2023-08-31T03:11:59;2.60;;;2.40;;
22826;SDS011;11580;52.562;13.418;2023-08-31T03:14:28;2.47;;;2.27;;
22826;SDS011;11580;52.562;13.418;2023-08-31T03:16:55;2.20;;;2.10;;
22826;SDS011;11580;52.562;13.418;2023-08-31T03:19:23;2.47;;;2.20;;
22826;SDS011;11580;52.562;13.418;2023-08-31T03:21:51;2.60;;;2.40;;
22826;SDS011;11580;52.562;13.418;2023-08-31T03:24:20;2.57;;;2.40;;
22826;SDS011;11580;52.562;13.418;2023-08-31T03:26:48;2.67;;;2.47;;
22826;SDS011;11580;52.562;13.418;2023-08-31T03:29:15;2.80;;;2.60;;
22826;SDS011;11580;52.562;13.418;2023-08-31T03:31:42;2.90;;;2.70;;
22826;SDS011;11580;52.562;13.418;2023-08-31T03:34:10;2.10;;;2.00;;
22826;SDS011;11580;52.562;13.418;2023-08-31T03:36:37;2.80;;;2.60;;
22826;SDS011;11580;52.562;13.418;2023-08-31T03:39:05;3.07;;;2.80;;
22826;SDS011;11580;52.562;13.418;2023-08-31T03:41:33;2.67;;;2.47;;
22826;SDS011;11580;52.562;13.418;2023-08-31T03:44:01;2.57;;;2.37;;
22826;SDS011;11580;52.562;13.418;2023-08-31T03:46:28;2.63;;;2.43;;
22826;SDS011;11580;52.562;13.418;2023-08-31T03:48:55;2.80;;;2.60;;
22826;SDS011;11580;52.562;13.418;2023-08-31T03:51:22;2.87;;;2.67;;
22826;SDS011;11580;52.562;13.418;2023-08-31T03:53:50;3.33;;;2.93;;
22826;SDS011;11580;52.562;13.418;2023-08-31T03:56:18;2.90;;;2.70;;
22826;SDS011;11580;52.562;13.418;2023-08-31T03:58:47;2.83;;;2.63;;
22826;SDS011;11580;52.562;13.418;2023-08-31T04:01:14;4.20;;;2.70;;
22826;SDS011;11580;52.562;13.418;2023-08-31T04:03:43;2.80;;;2.60;;
22826;SDS011;11580;52.562;13.418;2023-08-31T04:06:10;3.50;;;3.30;;
22826;SDS011;11580;52.562;13.418;2023-08-31T04:08:39;2.90;;;2.70;;
22826;SDS011;11580;52.562;13.418;2023-08-31T04:11:08;3.27;;;2.63;;
22826;SDS011;11580;52.562;13.418;2023-08-31T04:13:36;3.40;;;3.20;;
22826;SDS011;11580;52.562;13.418;2023-08-31T04:16:03;4.27;;;3.97;;
22826;SDS011;11580;52.562;13.418;2023-08-31T04:18:31;3.67;;;3.37;;
22826;SDS011;11580;52.562;13.418;2023-08-31T04:20:59;3.50;;;3.30;;
22826;SDS011;11580;52.562;13.418;2023-08-31T04:23:28;4.43;;;4.13;;
22826;SDS011;11580;52.562;13.418;2023-08-31T04:25:56;4.07;;;3.77;;
22826;SDS011;11580;52.562;13.418;2023-08-31T04:28:24;4.00;;;3.70;;
22826;SDS011;11580;52.562;13.418;2023-08-31T04:30:53;4.10;;;3.80;;
22826;SDS011;11580;52.562;13.418;2023-08-31T04:33:20;4.30;;;4.00;;
22826;SDS011;11580;52.562;13.418;2023-08-31T04:35:47;4.67;;;4.30;;
22826;SDS011;11580;52.562;13.418;2023-08-31T04:38:14;4.37;;;4.07;;
22826;SDS011;11580;52.562;13.418;2023-08-31T04:40:42;5.43;;;5.03;;
22826;SDS011;11580;52.562;13.418;2023-08-31T04:43:09;4.70;;;4.30;;
22826;SDS011;11580;52.562;13.418;2023-08-31T04:45:36;4.60;;;4.27;;
22826;SDS011;11580;52.562;13.418;2023-08-31T04:48:05;5.47;;;5.07;;
22826;SDS011;11580;52.562;13.418;2023-08-31T04:50:33;5.30;;;4.90;;
22826;SDS011;11580;52.562;13.418;2023-08-31T04:53:00;5.97;;;5.47;;
22826;SDS011;11580;52.562;13.418;2023-08-31T04:55:27;5.70;;;5.10;;
22826;SDS011;11580;52.562;13.418;2023-08-31T04:57:54;6.20;;;5.67;;
22826;SDS011;11580;52.562;13.418;2023-08-31T05:00:22;6.60;;;6.10;;
22826;SDS011;11580;52.562;13.418;2023-08-31T05:02:50;6.40;;;5.90;;
22826;SDS011;11580;52.562;13.418;2023-08-31T05:05:18;6.20;;;5.70;;
22826;SDS011;11580;52.562;13.418;2023-08-31T05:07:45;6.50;;;6.00;;
22826;SDS011;11580;52.562;13.418;2023-08-31T05:10:13;5.87;;;5.37;;
22826;SDS011;11580;52.562;13.418;2023-08-31T05:12:40;6.70;;;6.10;;
22826;SDS011;11580;52.562;13.418;2023-08-31T05:15:08;6.80;;;6.20;;
22826;SDS011;11580;52.562;13.418;2023-08-31T05:17:36;6.63;;;6.03;;
22826;SDS011;11580;52.562;13.418;2023-08-31T05:20:03;6.80;;;6.30;;
22826;SDS011;11580;52.562;13.418;2023-08-31T05:22:34;5.50;;;5.10;;
22826;SDS011;11580;52.562;13.418;2023-08-31T05:25:02;5.80;;;5.40;;
22826;SDS011;11580;52.562;13.418;2023-08-31T05:27:29;6.07;;;5.67;;
22826;SDS011;11580;52.562;13.418;2023-08-31T05:29:57;6.30;;;5.80;;
22826;SDS011;11580;52.562;13.418;2023-08-31T05:32:27;6.47;;;5.97;;
22826;SDS011;11580;52.562;13.418;2023-08-31T05:34:55;6.03;;;5.60;;
22826;SDS011;11580;52.562;13.418;2023-08-31T05:37:23;5.60;;;5.10;;
22826;SDS011;11580;52.562;13.418;2023-08-31T05:39:51;5.80;;;5.40;;
22826;SDS011;11580;52.562;13.418;2023-08-31T05:42:19;6.30;;;5.80;;
22826;SDS011;11580;52.562;13.418;2023-08-31T05:44:46;6.70;;;6.10;;
22826;SDS011;11580;52.562;13.418;2023-08-31T05:47:13;6.30;;;5.80;;
22826;SDS011;11580;52.562;13.418;2023-08-31T05:49:40;6.60;;;6.10;;
22826;SDS011;11580;52.562;13.418;2023-08-31T05:52:07;6.50;;;6.00;;
22826;SDS011;11580;52.562;13.418;2023-08-31T05:54:34;6.17;;;5.57;;
22826;SDS011;11580;52.562;13.418;2023-08-31T05:57:03;6.37;;;5.87;;
22826;SDS011;11580;52.562;13.418;2023-08-31T05:59:31;6.03;;;5.63;;
22826;SDS011;11580;52.562;13.418;2023-08-31T06:01:58;5.87;;;5.47;;
22826;SDS011;11580;52.562;13.418;2023-08-31T06:04:25;6.30;;;5.80;;
22826;SDS011;11580;52.562;13.418;2023-08-31T06:06:52;6.83;;;6.17;;
22826;SDS011;11580;52.562;13.418;2023-08-31T06:09:20;6.20;;;5.50;;
22826;SDS011;11580;52.562;13.418;2023-08-31T06:11:47;6.93;;;6.30;;
22826;SDS011;11580;52.562;13.418;2023-08-31T06:14:15;6.23;;;5.73;;
22826;SDS011;11580;52.562;13.418;2023-08-31T06:16:42;7.33;;;6.80;;
22826;SDS011;11580;52.562;13.418;2023-08-31T06:19:10;6.83;;;6.13;;
22826;SDS011;11580;52.562;13.418;2023-08-31T06:21:40;6.13;;;5.73;;
22826;SDS011;11580;52.562;13.418;2023-08-31T06:24:07;6.30;;;5.90;;
22826;SDS011;11580;52.562;13.418;2023-08-31T06:26:38;6.53;;;6.03;;
22826;SDS011;11580;52.562;13.418;2023-08-31T06:29:05;6.37;;;5.97;;
22826;SDS011;11580;52.562;13.418;2023-08-31T06:31:34;5.83;;;5.33;;
22826;SDS011;11580;52.562;13.418;2023-08-31T06:34:01;6.47;;;6.07;;
22826;SDS011;11580;52.562;13.418;2023-08-31T06:36:29;8.53;;;7.93;;
22826;SDS011;11580;52.562;13.418;2023-08-31T06:38:56;7.27;;;6.67;;
22826;SDS011;11580;52.562;13.418;2023-08-31T06:41:23;7.03;;;6.53;;
22826;SDS011;11580;52.562;13.418;2023-08-31T06:43:51;6.10;;;5.70;;
22826;SDS011;11580;52.562;13.418;2023-08-31T06:46:18;6.90;;;6.40;;
22826;SDS011;11580;52.562;13.418;2023-08-31T06:48:46;6.33;;;5.90;;
22826;SDS011;11580;52.562;13.418;2023-08-31T06:51:14;6.73;;;6.23;;
22826;SDS011;11580;52.562;13.418;2023-08-31T06:53:43;5.73;;;5.33;;
22826;SDS011;11580;52.562;13.418;2023-08-31T06:56:10;5.80;;;5.40;;
22826;SDS011;11580;52.562;13.418;2023-08-31T06:58:37;6.90;;;6.40;;
22826;SDS011;11580;52.562;13.418;2023-08-31T07:01:05;6.10;;;5.60;;
22826;SDS011;11580;52.562;13.418;2023-08-31T07:03:32;6.50;;;6.00;;
22826;SDS011;11580;52.562;13.418;2023-08-31T07:06:01;5.90;;;5.50;;
22826;SDS011;11580;52.562;13.418;2023-08-31T07:08:29;6.40;;;5.87;;
22826;SDS011;11580;52.562;13.418;2023-08-31T07:10:56;5.67;;;5.27;;
22826;SDS011;11580;52.562;13.418;2023-08-31T07:13:23;5.87;;;5.37;;
22826;SDS011;11580;52.562;13.418;2023-08-31T07:15:50;5.10;;;4.70;;
22826;SDS011;11580;52.562;13.418;2023-08-31T07:18:17;4.50;;;4.20;;
22826;SDS011;11580;52.562;13.418;2023-08-31T07:20:45;5.30;;;4.80;;
22826;SDS011;11580;52.562;13.418;2023-08-31T07:23:14;8.10;;;5.27;;
22826;SDS011;11580;52.562;13.418;2023-08-31T07:25:41;5.27;;;4.87;;
22826;SDS011;11580;52.562;13.418;2023-08-31T07:28:08;5.33;;;4.83;;
22826;SDS011;11580;52.562;13.418;2023-08-31T07:30:36;4.93;;;4.53;;
22826;SDS011;11580;52.562;13.418;2023-08-31T07:33:03;5.10;;;4.77;;
22826;SDS011;11580;52.562;13.418;2023-08-31T07:35:31;4.93;;;4.50;;
22826;SDS011;11580;52.562;13.418;2023-08-31T07:37:59;4.87;;;4.47;;
22826;SDS011;11580;52.562;13.418;2023-08-31T07:40:28;4.63;;;4.33;;
22826;SDS011;11580;52.562;13.418;2023-08-31T07:42:55;5.23;;;4.43;;
22826;SDS011;11580;52.562;13.418;2023-08-31T07:45:22;3.90;;;3.70;;
22826;SDS011;11580;52.562;13.418;2023-08-31T07:47:49;3.90;;;3.60;;
22826;SDS011;11580;52.562;13.418;2023-08-31T07:50:16;4.23;;;3.83;;
22826;SDS011;11580;52.562;13.418;2023-08-31T07:52:44;5.10;;;4.00;;
22826;SDS011;11580;52.562;13.418;2023-08-31T07:55:11;4.17;;;3.50;;
22826;SDS011;11580;52.562;13.418;2023-08-31T07:57:39;3.80;;;3.50;;
22826;SDS011;11580;52.562;13.418;2023-08-31T08:00:07;3.70;;;3.40;;
22826;SDS011;11580;52.562;13.418;2023-08-31T08:02:38;3.50;;;3.30;;
22826;SDS011;11580;52.562;13.418;2023-08-31T08:05:05;5.43;;;3.90;;
22826;SDS011;11580;52.562;13.418;2023-08-31T08:07:33;3.53;;;3.27;;
22826;SDS011;11580;52.562;13.418;2023-08-31T08:10:01;3.57;;;3.30;;
22826;SDS011;11580;52.562;13.418;2023-08-31T08:12:36;3.07;;;2.87;;
22826;SDS011;11580;52.562;13.418;2023-08-31T08:15:06;6.80;;;3.10;;
22826;SDS011;11580;52.562;13.418;2023-08-31T08:17:34;2.80;;;2.60;;
22826;SDS011;11580;52.562;13.418;2023-08-31T08:20:01;3.40;;;3.10;;
22826;SDS011;11580;52.562;13.418;2023-08-31T08:22:29;2.40;;;2.20;;
22826;SDS011;11580;52.562;13.418;2023-08-31T08:24:57;2.90;;;2.70;;
22826;SDS011;11580;52.562;13.418;2023-08-31T08:27:24;2.70;;;2.50;;
22826;SDS011;11580;52.562;13.418;2023-08-31T08:29:51;2.50;;;2.30;;
22826;SDS011;11580;52.562;13.418;2023-08-31T08:32:20;3.00;;;2.80;;
22826;SDS011;11580;52.562;13.418;2023-08-31T08:34:47;3.50;;;3.20;;
22826;SDS011;11580;52.562;13.418;2023-08-31T08:37:14;3.33;;;2.70;;
22826;SDS011;11580;52.562;13.418;2023-08-31T08:39:41;2.93;;;2.40;;
22826;SDS011;11580;52.562;13.418;2023-08-31T08:42:09;2.70;;;2.50;;
22826;SDS011;11580;52.562;13.418;2023-08-31T08:44:37;3.00;;;2.80;;
22826;SDS011;11580;52.562;13.418;2023-08-31T08:47:06;2.93;;;2.70;;
22826;SDS011;11580;52.562;13.418;2023-08-31T08:49:35;5.33;;;2.67;;
22826;SDS011;11580;52.562;13.418;2023-08-31T08:52:03;2.60;;;2.40;;
22826;SDS011;11580;52.562;13.418;2023-08-31T08:54:31;1.97;;;1.77;;
22826;SDS011;11580;52.562;13.418;2023-08-31T08:57:00;1.90;;;1.80;;
22826;SDS011;11580;52.562;13.418;2023-08-31T08:59:29;1.97;;;1.80;;
22826;SDS011;11580;52.562;13.418;2023-08-31T09:01:57;2.57;;;1.70;;
22826;SDS011;11580;52.562;13.418;2023-08-31T09:04:24;1.77;;;1.30;;
22826;SDS011;11580;52.562;13.418;2023-08-31T09:06:53;1.90;;;1.80;;
22826;SDS011;11580;52.562;13.418;2023-08-31T09:09:20;1.90;;;1.60;;
22826;SDS011;11580;52.562;13.418;2023-08-31T09:11:47;1.60;;;1.50;;
22826;SDS011;11580;52.562;13.418;2023-08-31T09:14:15;2.03;;;1.63;;
22826;SDS011;11580;52.562;13.418;2023-08-31T09:16:44;1.90;;;1.70;;
22826;SDS011;11580;52.562;13.418;2023-08-31T09:19:19;1.93;;;1.60;;
22826;SDS011;11580;52.562;13.418;2023-08-31T09:21:48;2.50;;;1.60;;
22826;SDS011;11580;52.562;13.418;2023-08-31T09:24:18;1.97;;;1.77;;
22826;SDS011;11580;52.562;13.418;2023-08-31T09:26:47;2.00;;;1.80;;
22826;SDS011;11580;52.562;13.418;2023-08-31T09:29:19;2.07;;;1.87;;
22826;SDS011;11580;52.562;13.418;2023-08-31T09:31:46;2.37;;;1.70;;
22826;SDS011;11580;52.562;13.418;2023-08-31T09:34:14;1.60;;;1.50;;
22826;SDS011;11580;52.562;13.418;2023-08-31T09:36:42;3.33;;;1.70;;
22826;SDS011;11580;52.562;13.418;2023-08-31T09:39:10;1.77;;;1.67;;
22826;SDS011;11580;52.562;13.418;2023-08-31T09:41:53;3.30;;;2.30;;
22826;SDS011;11580;52.562;13.418;2023-08-31T09:44:21;1.83;;;1.50;;
22826;SDS011;11580;52.562;13.418;2023-08-31T09:46:48;2.60;;;2.40;;
22826;SDS011;11580;52.562;13.418;2023-08-31T09:49:16;2.27;;;1.80;;
22826;SDS011;11580;52.562;13.418;2023-08-31T09:51:45;2.57;;;1.90;;
22826;SDS011;11580;52.562;13.418;2023-08-31T09:54:15;2.30;;;2.10;;
22826;SDS011;11580;52.562;13.418;2023-08-31T09:56:45;1.80;;;1.70;;
22826;SDS011;11580;52.562;13.418;2023-08-31T09:59:15;1.80;;;1.70;;
22826;SDS011;11580;52.562;13.418;2023-08-31T10:01:44;2.30;;;1.87;;
22826;SDS011;11580;52.562;13.418;2023-08-31T10:04:12;2.20;;;1.90;;
22826;SDS011;11580;52.562;13.418;2023-08-31T10:06:40;2.20;;;1.87;;
22826;SDS011;11580;52.562;13.418;2023-08-31T10:09:09;2.40;;;2.00;;
22826;SDS011;11580;52.562;13.418;2023-08-31T10:11:37;1.83;;;1.73;;
22826;SDS011;11580;52.562;13.418;2023-08-31T10:14:05;1.50;;;1.40;;
22826;SDS011;11580;52.562;13.418;2023-08-31T10:16:35;1.80;;;1.40;;
22826;SDS011;11580;52.562;13.418;2023-08-31T10:19:05;2.10;;;1.43;;
22826;SDS011;11580;52.562;13.418;2023-08-31T10:21:32;3.40;;;1.60;;
22826;SDS011;11580;52.562;13.418;2023-08-31T10:24:00;1.70;;;1.40;;
22826;SDS011;11580;52.562;13.418;2023-08-31T10:26:27;2.33;;;1.60;;
22826;SDS011;11580;52.562;13.418;2023-08-31T10:28:57;2.53;;;1.53;;
22826;SDS011;11580;52.562;13.418;2023-08-31T10:31:28;1.60;;;1.50;;
22826;SDS011;11580;52.562;13.418;2023-08-31T10:33:58;4.83;;;1.90;;
22826;SDS011;11580;52.562;13.418;2023-08-31T10:36:36;2.73;;;1.70;;
22826;SDS011;11580;52.562;13.418;2023-08-31T10:39:05;1.60;;;1.50;;
22826;SDS011;11580;52.562;13.418;2023-08-31T10:41:39;1.60;;;1.50;;
22826;SDS011;11580;52.562;13.418;2023-08-31T10:44:17;1.77;;;1.40;;
22826;SDS011;11580;52.562;13.418;2023-08-31T10:46:46;1.53;;;1.43;;
22826;SDS011;11580;52.562;13.418;2023-08-31T10:49:15;3.00;;;1.47;;
22826;SDS011;11580;52.562;13.418;2023-08-31T10:51:44;2.53;;;1.60;;
22826;SDS011;11580;52.562;13.418;2023-08-31T10:54:19;1.60;;;1.50;;
22826;SDS011;11580;52.562;13.418;2023-08-31T10:57:00;2.33;;;1.40;;
22826;SDS011;11580;52.562;13.418;2023-08-31T10:59:46;1.63;;;1.53;;
22826;SDS011;11580;52.562;13.418;2023-08-31T11:02:29;1.90;;;1.70;;
22826;SDS011;11580;52.562;13.418;2023-08-31T11:05:02;1.90;;;1.80;;
22826;SDS011;11580;52.562;13.418;2023-08-31T11:07:34;2.73;;;1.70;;
22826;SDS011;11580;52.562;13.418;2023-08-31T11:10:12;2.73;;;2.53;;
22826;SDS011;11580;52.562;13.418;2023-08-31T11:12:43;2.00;;;1.57;;
22826;SDS011;11580;52.562;13.418;2023-08-31T11:15:12;2.63;;;2.43;;
22826;SDS011;11580;52.562;13.418;2023-08-31T11:17:41;1.93;;;1.60;;
22826;SDS011;11580;52.562;13.418;2023-08-31T11:20:12;2.03;;;1.70;;
22826;SDS011;11580;52.562;13.418;2023-08-31T11:22:42;3.23;;;1.70;;
22826;SDS011;11580;52.562;13.418;2023-08-31T11:25:11;1.70;;;1.50;;
22826;SDS011;11580;52.562;13.418;2023-08-31T11:27:39;3.40;;;1.87;;
22826;SDS011;11580;52.562;13.418;2023-08-31T11:30:16;1.97;;;1.80;;
22826;SDS011;11580;52.562;13.418;2023-08-31T11:32:45;3.37;;;1.97;;
22826;SDS011;11580;52.562;13.418;2023-08-31T11:35:15;1.63;;;1.50;;
22826;SDS011;11580;52.562;13.418;2023-08-31T11:37:43;2.63;;;2.10;;
22826;SDS011;11580;52.562;13.418;2023-08-31T11:40:13;7.30;;;3.30;;
22826;SDS011;11580;52.562;13.418;2023-08-31T11:42:40;3.30;;;2.90;;
22826;SDS011;11580;52.562;13.418;2023-08-31T11:45:09;2.40;;;2.20;;
22826;SDS011;11580;52.562;13.418;2023-08-31T11:47:39;1.90;;;1.80;;
22826;SDS011;11580;52.562;13.418;2023-08-31T11:50:07;2.60;;;2.27;;
22826;SDS011;11580;52.562;13.418;2023-08-31T11:52:38;2.40;;;1.80;;
22826;SDS011;11580;52.562;13.418;2023-08-31T11:55:09;1.70;;;1.60;;
22826;SDS011;11580;52.562;13.418;2023-08-31T11:57:38;2.13;;;1.93;;
22826;SDS011;11580;52.562;13.418;2023-08-31T12:00:06;3.73;;;2.30;;
22826;SDS011;11580;52.562;13.418;2023-08-31T12:02:36;3.30;;;2.20;;
22826;SDS011;11580;52.562;13.418;2023-08-31T12:05:03;2.07;;;1.97;;
22826;SDS011;11580;52.562;13.418;2023-08-31T12:07:31;1.73;;;1.63;;
22826;SDS011;11580;52.562;13.418;2023-08-31T12:10:07;4.33;;;3.07;;
22826;SDS011;11580;52.562;13.418;2023-08-31T12:12:35;2.10;;;2.00;;
22826;SDS011;11580;52.562;13.418;2023-08-31T12:15:03;2.20;;;2.00;;
22826;SDS011;11580;52.562;13.418;2023-08-31T12:17:36;2.30;;;2.03;;
22826;SDS011;11580;52.562;13.418;2023-08-31T12:20:05;2.00;;;1.90;;
22826;SDS011;11580;52.562;13.418;2023-08-31T12:22:33;3.17;;;2.97;;
22826;SDS011;11580;52.562;13.418;2023-08-31T12:25:01;2.60;;;2.13;;
22826;SDS011;11580;52.562;13.418;2023-08-31T12:27:30;3.10;;;2.70;;
22826;SDS011;11580;52.562;13.418;2023-08-31T12:29:57;2.40;;;2.20;;
22826;SDS011;11580;52.562;13.418;2023-08-31T12:32:24;1.87;;;1.77;;
22826;SDS011;11580;52.562;13.418;2023-08-31T12:34:51;3.17;;;2.40;;
22826;SDS011;11580;52.562;13.418;2023-08-31T12:37:18;3.63;;;2.00;;
22826;SDS011;11580;52.562;13.418;2023-08-31T12:39:46;3.43;;;2.00;;
22826;SDS011;11580;52.562;13.418;2023-08-31T12:42:13;3.00;;;2.10;;
22826;SDS011;11580;52.562;13.418;2023-08-31T12:44:42;2.67;;;2.47;;
22826;SDS011;11580;52.562;13.418;2023-08-31T12:47:09;2.60;;;2.40;;
22826;SDS011;11580;52.562;13.418;2023-08-31T12:49:36;2.63;;;2.43;;
22826;SDS011;11580;52.562;13.418;2023-08-31T12:52:04;5.70;;;2.50;;
22826;SDS011;11580;52.562;13.418;2023-08-31T12:54:32;2.60;;;2.50;;
22826;SDS011;11580;52.562;13.418;2023-08-31T12:56:59;2.37;;;2.17;;
22826;SDS011;11580;52.562;13.418;2023-08-31T12:59:26;2.03;;;1.93;;
22826;SDS011;11580;52.562;13.418;2023-08-31T13:01:54;2.40;;;2.30;;
22826;SDS011;11580;52.562;13.418;2023-08-31T13:04:22;3.40;;;2.30;;
22826;SDS011;11580;52.562;13.418;2023-08-31T13:06:50;2.37;;;1.90;;
22826;SDS011;11580;52.562;13.418;2023-08-31T13:09:16;1.93;;;1.73;;
22826;SDS011;11580;52.562;13.418;2023-08-31T13:11:43;1.87;;;1.77;;
22826;SDS011;11580;52.562;13.418;2023-08-31T13:14:10;2.10;;;2.00;;
22826;SDS011;11580;52.562;13.418;2023-08-31T13:16:37;3.83;;;1.80;;
22826;SDS011;11580;52.562;13.418;2023-08-31T13:19:06;1.90;;;1.80;;
22826;SDS011;11580;52.562;13.418;2023-08-31T13:21:34;2.90;;;1.97;;
22826;SDS011;11580;52.562;13.418;2023-08-31T13:24:01;1.70;;;1.60;;
22826;SDS011;11580;52.562;13.418;2023-08-31T13:26:28;1.50;;;1.40;;
22826;SDS011;11580;52.562;13.418;2023-08-31T13:28:56;2.23;;;2.03;;
22826;SDS011;11580;52.562;13.418;2023-08-31T13:31:23;1.30;;;1.20;;
22826;SDS011;11580;52.562;13.418;2023-08-31T13:33:50;1.90;;;1.63;;
22826;SDS011;11580;52.562;13.418;2023-08-31T13:36:18;1.50;;;1.40;;
22826;SDS011;11580;52.562;13.418;2023-08-31T13:38:45;1.43;;;1.33;;
22826;SDS011;11580;52.562;13.418;2023-08-31T13:41:13;1.43;;;1.33;;
22826;SDS011;11580;52.562;13.418;2023-08-31T13:43:40;1.47;;;1.37;;
22826;SDS011;11580;52.562;13.418;2023-08-31T13:46:07;1.40;;;1.30;;
22826;SDS011;11580;52.562;13.418;2023-08-31T13:48:35;1.10;;;1.10;;
22826;SDS011;11580;52.562;13.418;2023-08-31T13:51:02;1.60;;;1.50;;
22826;SDS011;11580;52.562;13.418;2023-08-31T13:53:31;2.40;;;1.37;;
22826;SDS011;11580;52.562;13.418;2023-08-31T13:55:58;1.43;;;1.33;;
22826;SDS011;11580;52.562;13.418;2023-08-31T13:58:25;2.13;;;1.50;;
22826;SDS011;11580;52.562;13.418;2023-08-31T14:00:53;1.50;;;1.40;;
22826;SDS011;11580;52.562;13.418;2023-08-31T14:03:21;1.60;;;1.50;;
22826;SDS011;11580;52.562;13.418;2023-08-31T14:05:48;1.70;;;1.60;;
22826;SDS011;11580;52.562;13.418;2023-08-31T14:08:15;1.50;;;1.40;;
22826;SDS011;11580;52.562;13.418;2023-08-31T14:10:44;1.57;;;1.47;;
22826;SDS011;11580;52.562;13.418;2023-08-31T14:13:11;1.57;;;1.47;;
22826;SDS011;11580;52.562;13.418;2023-08-31T14:15:39;1.53;;;1.43;;
22826;SDS011;11580;52.562;13.418;2023-08-31T14:18:11;1.40;;;1.30;;
22826;SDS011;11580;52.562;13.418;2023-08-31T14:20:39;1.63;;;1.50;;
22826;SDS011;11580;52.562;13.418;2023-08-31T14:23:06;2.13;;;1.73;;
22826;SDS011;11580;52.562;13.418;2023-08-31T14:25:35;1.60;;;1.50;;
22826;SDS011;11580;52.562;13.418;2023-08-31T14:28:05;1.70;;;1.60;;
22826;SDS011;11580;52.562;13.418;2023-08-31T14:30:32;1.53;;;1.43;;
22826;SDS011;11580;52.562;13.418;2023-08-31T14:33:02;1.77;;;1.40;;
22826;SDS011;11580;52.562;13.418;2023-08-31T14:35:30;1.40;;;1.30;;
22826;SDS011;11580;52.562;13.418;2023-08-31T14:37:57;1.60;;;1.50;;
22826;SDS011;11580;52.562;13.418;2023-08-31T14:40:24;1.10;;;1.03;;